createdAt,value
2019-02-25T00:02:28.964Z,102921.03
2019-02-25T00:05:02.249Z,102925.55
2019-02-25T00:07:35.585Z,102928.81
2019-02-25T00:10:09.761Z,102925.77
2019-02-25T00:12:43.043Z,102923.31
2019-02-25T00:15:16.404Z,102919.52
2019-02-25T00:17:49.681Z,102916.84
2019-02-25T00:20:22.975Z,102916.00
2019-02-25T00:22:56.234Z,102914.02
2019-02-25T00:25:29.518Z,102914.19
2019-02-25T00:28:02.785Z,102917.83
2019-02-25T00:30:36.071Z,102916.42
2019-02-25T00:33:09.330Z,102912.66
2019-02-25T00:35:42.614Z,102912.19
2019-02-25T00:38:15.875Z,102916.54
2019-02-25T00:40:49.156Z,102907.37
2019-02-25T00:43:22.409Z,102918.58
2019-02-25T00:45:55.686Z,102905.91
2019-02-25T00:48:28.939Z,102909.60
2019-02-25T00:51:02.231Z,102910.23
2019-02-25T00:53:35.483Z,102913.95
2019-02-25T00:56:09.036Z,102926.38
2019-02-25T00:58:42.305Z,102917.86
2019-02-25T01:01:15.672Z,102916.41
2019-02-25T01:03:48.950Z,102903.57
2019-02-25T01:06:22.292Z,102906.20
2019-02-25T01:08:55.573Z,102903.30
2019-02-25T01:11:28.934Z,102902.84
2019-02-25T01:14:02.196Z,102901.71
2019-02-25T01:16:35.489Z,102909.47
2019-02-25T01:19:08.754Z,102898.95
2019-02-25T01:21:42.056Z,102896.11
2019-02-25T01:24:15.325Z,102896.44
2019-02-25T01:26:48.592Z,102886.45
2019-02-25T01:29:21.862Z,102889.53
2019-02-25T01:31:55.133Z,102891.75
2019-02-25T01:34:28.410Z,102887.90
2019-02-25T01:37:01.693Z,102881.73
2019-02-25T01:39:34.976Z,102879.07
2019-02-25T01:42:08.266Z,102879.12
2019-02-25T01:44:41.527Z,102879.08
2019-02-25T01:47:14.813Z,102878.61
2019-02-25T01:49:48.082Z,102885.44
2019-02-25T01:52:21.357Z,102883.87
2019-02-25T01:54:54.643Z,102883.46
2019-02-25T01:57:27.925Z,102882.34
2019-02-25T02:00:01.361Z,102882.04
2019-02-25T02:02:34.557Z,102878.87
2019-02-25T02:05:07.906Z,102876.36
2019-02-25T02:07:41.177Z,102873.68
2019-02-25T02:10:15.796Z,102871.44
2019-02-25T02:12:49.146Z,102864.20
2019-02-25T02:15:22.523Z,102870.37
2019-02-25T02:17:55.809Z,102882.53
2019-02-25T02:20:29.113Z,102880.31
2019-02-25T02:23:02.393Z,102869.09
2019-02-25T02:25:35.725Z,102867.61
2019-02-25T02:28:09.003Z,102870.51
2019-02-25T02:30:42.345Z,102866.89
2019-02-25T02:33:15.639Z,102861.95
2019-02-25T02:35:48.937Z,102864.52
2019-02-25T02:38:22.241Z,102867.77
2019-02-25T02:40:55.530Z,102868.81
2019-02-25T02:43:28.804Z,102873.52
2019-02-25T02:46:08.065Z,102873.66
2019-02-25T02:48:50.386Z,102866.39
2019-02-25T02:51:23.708Z,102865.23
2019-02-25T02:53:56.967Z,102873.92
2019-02-25T02:56:30.283Z,102873.26
2019-02-25T02:59:03.761Z,102880.87
2019-02-25T03:01:37.046Z,102883.50
2019-02-25T03:04:10.328Z,102877.58
2019-02-25T03:06:43.646Z,102878.04
2019-02-25T03:09:16.914Z,102884.19
2019-02-25T03:11:50.212Z,102877.22
2019-02-25T03:14:23.497Z,102883.41
2019-02-25T03:16:56.789Z,102887.61
2019-02-25T03:19:30.067Z,102891.48
2019-02-25T03:22:03.354Z,102890.04
2019-02-25T03:24:36.629Z,102902.12
2019-02-25T03:27:09.924Z,102903.80
2019-02-25T03:29:43.200Z,102902.15
2019-02-25T03:32:16.488Z,102895.92
2019-02-25T03:34:49.773Z,102900.51
2019-02-25T03:37:23.096Z,102897.84
2019-02-25T03:39:56.364Z,102893.66
2019-02-25T03:42:29.696Z,102896.35
2019-02-25T03:45:03.406Z,102898.27
2019-02-25T03:47:36.766Z,102899.80
2019-02-25T03:50:10.216Z,102903.55
2019-02-25T03:52:43.568Z,102905.52
2019-02-25T03:55:21.553Z,102908.52
2019-02-25T03:57:54.858Z,102897.19
2019-02-25T04:00:28.200Z,102891.12
2019-02-25T04:03:01.531Z,102881.56
2019-02-25T04:05:34.894Z,102881.40
2019-02-25T04:08:08.185Z,102873.84
2019-02-25T04:10:41.464Z,102881.31
2019-02-25T04:13:14.765Z,102880.78
2019-02-25T04:15:48.141Z,102883.11
2019-02-25T04:18:21.433Z,102888.44
2019-02-25T04:20:54.718Z,102884.16
2019-02-25T04:23:28.030Z,102882.08
2019-02-25T04:26:01.302Z,102892.23
2019-02-25T04:28:34.608Z,102885.39
2019-02-25T04:31:07.898Z,102890.77
2019-02-25T04:33:41.186Z,102889.79
2019-02-25T04:36:14.459Z,102890.79
2019-02-25T04:38:47.768Z,102881.97
2019-02-25T04:41:21.033Z,102881.59
2019-02-25T04:43:54.338Z,102891.50
2019-02-25T04:46:27.630Z,102888.22
2019-02-25T04:49:00.920Z,102887.05
2019-02-25T04:51:34.187Z,102889.22
2019-02-25T04:54:07.482Z,102902.72
2019-02-25T04:56:40.784Z,102902.42
2019-02-25T04:59:14.089Z,102898.74
2019-02-25T05:01:47.374Z,102900.41
2019-02-25T05:04:20.700Z,102902.32
2019-02-25T05:06:53.949Z,102900.50
2019-02-25T05:09:27.371Z,102900.80
2019-02-25T05:12:00.680Z,102898.32
2019-02-25T05:14:33.966Z,102890.41
2019-02-25T05:17:07.279Z,102891.50
2019-02-25T05:19:40.543Z,102890.81
2019-02-25T05:22:13.840Z,102883.38
2019-02-25T05:24:47.155Z,102882.59
2019-02-25T05:27:20.442Z,102886.08
2019-02-25T05:29:53.736Z,102895.72
2019-02-25T05:32:27.035Z,102893.31
2019-02-25T05:35:00.493Z,102897.19
2019-02-25T05:37:33.740Z,102890.34
2019-02-25T05:40:18.078Z,102896.88
2019-02-25T05:42:51.455Z,102911.47
2019-02-25T05:45:24.743Z,102901.87
2019-02-25T05:47:58.059Z,102900.45
2019-02-25T05:50:31.344Z,102903.16
2019-02-25T05:53:05.013Z,102902.17
2019-02-25T05:55:38.308Z,102904.06
2019-02-25T05:58:11.622Z,102907.50
2019-02-25T06:00:44.918Z,102919.41
2019-02-25T06:03:18.216Z,102912.36
2019-02-25T06:05:51.504Z,102904.83
2019-02-25T06:08:24.798Z,102902.38
2019-02-25T06:10:58.099Z,102902.47
2019-02-25T06:13:31.393Z,102903.55
2019-02-25T06:16:04.754Z,102907.72
2019-02-25T06:18:39.170Z,102903.84
2019-02-25T06:21:12.528Z,102905.31
2019-02-25T06:23:45.857Z,102911.68
2019-02-25T06:26:19.150Z,102904.02
2019-02-25T06:28:52.448Z,102910.78
2019-02-25T06:31:25.791Z,102910.78
2019-02-25T06:33:59.092Z,102908.89
2019-02-25T06:36:32.370Z,102910.69
2019-02-25T06:39:06.661Z,102921.01
2019-02-25T06:41:39.925Z,102918.43
2019-02-25T06:44:13.270Z,102930.86
2019-02-25T06:46:46.560Z,102931.13
2019-02-25T06:49:19.885Z,102934.31
2019-02-25T06:51:53.169Z,102928.33
2019-02-25T06:54:26.495Z,102927.03
2019-02-25T06:56:59.808Z,102937.66
2019-02-25T06:59:33.156Z,102937.34
2019-02-25T07:02:06.527Z,102944.41
2019-02-25T07:04:50.782Z,102942.12
2019-02-25T07:07:25.688Z,102944.00
2019-02-25T07:10:03.523Z,102947.11
2019-02-25T07:12:41.120Z,102946.03
2019-02-25T07:15:16.051Z,102931.45
2019-02-25T07:17:56.762Z,102937.31
2019-02-25T07:20:31.759Z,102942.89
2019-02-25T07:23:06.749Z,102950.69
2019-02-25T07:25:41.690Z,102934.61
2019-02-25T07:28:22.411Z,102934.94
2019-02-25T07:31:05.884Z,102928.88
2019-02-25T07:33:43.610Z,102928.89
2019-02-25T07:36:24.555Z,102925.65
2019-02-25T07:39:14.581Z,102923.95
2019-02-25T07:42:05.397Z,102925.60
2019-02-25T07:44:42.823Z,102928.99
2019-02-25T07:47:26.743Z,102928.25
2019-02-25T07:50:01.679Z,102931.49
2019-02-25T07:52:51.845Z,102933.47
2019-02-25T07:55:26.776Z,102931.67
2019-02-25T07:58:04.670Z,102926.83
2019-02-25T08:00:39.625Z,102929.23
2019-02-25T08:03:17.203Z,102936.38
2019-02-25T08:06:08.294Z,102938.53
2019-02-25T08:08:59.282Z,102936.62
2019-02-25T08:11:40.189Z,102936.73
2019-02-25T08:14:17.765Z,102929.91
2019-02-25T08:16:55.507Z,102930.45
2019-02-25T08:19:46.994Z,102926.81
2019-02-25T08:22:25.051Z,102928.42
2019-02-25T08:25:05.863Z,102926.97
2019-02-25T08:27:40.824Z,102935.61
2019-02-25T08:30:30.887Z,102924.31
2019-02-25T08:33:14.915Z,102933.95
2019-02-25T08:35:53.031Z,102935.50
2019-02-25T08:38:44.403Z,102942.45
2019-02-25T08:41:34.663Z,102947.19
2019-02-25T08:44:21.592Z,102946.66
2019-02-25T08:46:56.526Z,102954.00
2019-02-25T08:49:31.546Z,102955.98
2019-02-25T08:52:04.896Z,102963.98
2019-02-25T08:54:38.209Z,102956.03
2019-02-25T08:57:11.573Z,102957.19
2019-02-25T08:59:44.883Z,102958.78
2019-02-25T09:02:18.177Z,102959.73
2019-02-25T09:04:51.464Z,102958.66
2019-02-25T09:07:24.749Z,102948.88
2019-02-25T09:09:58.044Z,102940.11
2019-02-25T09:12:31.333Z,102946.38
2019-02-25T09:15:07.452Z,102939.88
2019-02-25T09:17:42.518Z,102937.55
2019-02-25T09:20:16.289Z,102947.80
2019-02-25T09:22:49.559Z,102945.80
2019-02-25T09:25:22.859Z,102943.19
2019-02-25T09:27:56.149Z,102944.81
2019-02-25T09:30:29.456Z,102942.47
2019-02-25T09:33:02.724Z,102940.94
2019-02-25T09:35:36.044Z,102943.84
2019-02-25T09:38:09.348Z,102944.02
2019-02-25T09:40:42.648Z,102952.27
2019-02-25T09:43:15.946Z,102955.34
2019-02-25T09:45:49.345Z,102939.97
2019-02-25T09:48:22.649Z,102937.87
2019-02-25T09:50:55.945Z,102935.23
2019-02-25T09:53:29.246Z,102935.94
2019-02-25T09:56:02.574Z,102928.56
2019-02-25T09:58:35.862Z,102922.20
2019-02-25T10:01:09.404Z,102913.35
2019-02-25T10:03:42.683Z,102917.66
2019-02-25T10:06:16.029Z,102915.39
2019-02-25T10:08:49.306Z,102925.54
2019-02-25T10:11:22.623Z,102914.90
2019-02-25T10:13:56.061Z,102907.55
2019-02-25T10:16:29.315Z,102902.82
2019-02-25T10:19:02.604Z,102901.10
2019-02-25T10:21:35.887Z,102899.98
2019-02-25T10:24:09.281Z,102899.92
2019-02-25T10:26:42.573Z,102887.87
2019-02-25T10:29:15.910Z,102886.34
2019-02-25T10:31:49.178Z,102894.00
2019-02-25T10:34:24.073Z,102900.27
2019-02-25T10:36:57.507Z,102897.53
2019-02-25T10:39:30.833Z,102890.34
2019-02-25T10:42:04.124Z,102891.03
2019-02-25T10:44:38.181Z,102900.22
2019-02-25T10:47:13.575Z,102892.73
2019-02-25T10:49:47.543Z,102887.37
2019-02-25T10:52:20.859Z,102870.98
2019-02-25T10:54:56.101Z,102868.26
2019-02-25T10:57:31.354Z,102864.30
2019-02-25T11:00:07.385Z,102862.71
2019-02-25T11:02:44.462Z,102857.80
2019-02-25T11:05:18.914Z,102860.62
2019-02-25T11:07:52.046Z,102861.71
2019-02-25T11:10:26.995Z,102863.13
2019-02-25T11:13:02.071Z,102860.34
2019-02-25T11:15:37.522Z,102862.59
2019-02-25T11:18:11.592Z,102861.25
2019-02-25T11:20:44.898Z,102860.36
2019-02-25T11:23:19.446Z,102858.85
2019-02-25T11:25:53.717Z,102860.00
2019-02-25T11:28:28.313Z,102855.70
2019-02-25T11:31:01.680Z,102854.58
2019-02-25T11:33:35.277Z,102857.78
2019-02-25T11:36:10.434Z,102858.41
2019-02-25T11:38:43.854Z,102862.67
2019-02-25T11:41:17.172Z,102857.03
2019-02-25T11:43:52.967Z,102850.46
2019-02-25T11:46:25.596Z,102847.19
2019-02-25T11:48:59.014Z,102850.88
2019-02-25T11:51:32.368Z,102837.97
2019-02-25T11:54:05.739Z,102845.03
2019-02-25T11:56:39.058Z,102835.45
2019-02-25T11:59:12.367Z,102829.31
2019-02-25T12:01:45.746Z,102832.89
2019-02-25T12:04:19.052Z,102831.56
2019-02-25T12:06:52.424Z,102829.52
2019-02-25T12:09:25.789Z,102829.20
2019-02-25T12:11:59.106Z,102819.84
2019-02-25T12:14:32.406Z,102811.09
2019-02-25T12:17:05.770Z,102802.83
2019-02-25T12:19:39.078Z,102800.70
2019-02-25T12:22:12.381Z,102805.95
2019-02-25T12:24:45.679Z,102797.62
2019-02-25T12:27:19.009Z,102792.32
2019-02-25T12:29:52.316Z,102792.80
2019-02-25T12:32:25.949Z,102789.38
2019-02-25T12:34:59.242Z,102779.63
2019-02-25T12:37:32.537Z,102783.59
2019-02-25T12:40:09.000Z,102781.39
2019-02-25T12:42:42.308Z,102780.95
2019-02-25T12:45:16.048Z,102780.55
2019-02-25T12:47:49.365Z,102777.05
2019-02-25T12:50:22.684Z,102772.63
2019-02-25T12:52:56.019Z,102768.67
2019-02-25T12:55:29.298Z,102766.48
2019-02-25T12:58:02.585Z,102758.53
2019-02-25T13:00:35.860Z,102755.42
2019-02-25T13:03:09.192Z,102755.86
2019-02-25T13:05:42.502Z,102742.60
2019-02-25T13:08:15.814Z,102741.66
2019-02-25T13:10:49.106Z,102733.73
2019-02-25T13:13:22.408Z,102734.66
2019-02-25T13:15:55.732Z,102729.25
2019-02-25T13:18:29.024Z,102727.51
2019-02-25T13:21:02.314Z,102715.11
2019-02-25T13:23:35.639Z,102722.66
2019-02-25T13:26:08.932Z,102715.11
2019-02-25T13:28:42.187Z,102717.67
2019-02-25T13:31:15.521Z,102707.02
2019-02-25T13:33:48.843Z,102709.62
2019-02-25T13:36:22.223Z,102707.27
2019-02-25T13:38:55.573Z,102709.79
2019-02-25T13:41:28.832Z,102697.03
2019-02-25T13:44:02.164Z,102690.03
2019-02-25T13:46:35.612Z,102687.32
2019-02-25T13:49:08.940Z,102677.44
2019-02-25T13:51:42.242Z,102664.17
2019-02-25T13:54:15.548Z,102680.91
2019-02-25T13:56:48.881Z,102676.04
2019-02-25T13:59:22.223Z,102668.08
2019-02-25T14:01:55.543Z,102640.95
2019-02-25T14:04:28.845Z,102650.80
2019-02-25T14:07:02.122Z,102648.61
2019-02-25T14:09:35.524Z,102645.14
2019-02-25T14:12:09.363Z,102618.72
2019-02-25T14:14:42.637Z,102618.72
2019-02-25T14:17:15.944Z,102621.16
2019-02-25T14:19:49.221Z,102613.13
2019-02-25T14:22:22.525Z,102612.83
2019-02-25T14:24:56.735Z,102611.34
2019-02-25T14:27:30.287Z,102607.27
2019-02-25T14:30:04.314Z,102599.31
2019-02-25T14:32:37.830Z,102589.70
2019-02-25T14:35:11.190Z,102589.78
2019-02-25T14:37:44.512Z,102581.16
2019-02-25T14:40:21.325Z,102583.17
2019-02-25T14:42:56.698Z,102579.96
2019-02-25T14:45:33.509Z,102580.08
2019-02-25T14:48:08.168Z,102580.31
2019-02-25T14:50:41.819Z,102575.65
2019-02-25T14:53:15.334Z,102576.09
2019-02-25T14:55:50.358Z,102563.98
2019-02-25T14:58:23.794Z,102567.34
2019-02-25T15:00:57.116Z,102570.83
2019-02-25T15:03:30.492Z,102571.33
2019-02-25T15:06:03.782Z,102564.21
2019-02-25T15:08:37.148Z,102563.36
2019-02-25T15:11:11.383Z,102562.37
2019-02-25T15:13:45.455Z,102559.37
2019-02-25T15:16:18.829Z,102556.05
2019-02-25T15:18:52.201Z,102562.78
2019-02-25T15:21:25.487Z,102565.55
2019-02-25T15:24:00.515Z,102555.36
2019-02-25T15:26:42.655Z,102559.13
2019-02-25T15:29:09.323Z,102562.03
2019-02-25T15:31:44.426Z,102561.68
2019-02-25T15:34:19.284Z,102565.28
2019-02-25T15:36:52.674Z,102570.92
2019-02-25T15:39:26.443Z,102561.97
2019-02-25T15:41:59.693Z,102557.85
2019-02-25T15:44:33.086Z,102553.45
2019-02-25T15:47:08.253Z,102556.14
2019-02-25T15:49:41.785Z,102567.55
2019-02-25T15:52:18.362Z,102566.26
2019-02-25T15:54:50.212Z,102560.14
2019-02-25T15:57:24.562Z,102563.63
2019-02-25T15:59:58.629Z,102565.42
2019-02-25T16:02:31.965Z,102564.63
2019-02-25T16:05:09.624Z,102566.03
2019-02-25T16:07:43.370Z,102563.90
2019-02-25T16:10:17.255Z,102564.10
2019-02-25T16:12:51.239Z,102550.77
2019-02-25T16:15:25.711Z,102556.47
2019-02-25T16:17:58.989Z,102546.92
2019-02-25T16:20:32.709Z,102546.92
2019-02-25T16:23:08.261Z,102545.66
2019-02-25T16:25:41.403Z,102550.90
2019-02-25T16:28:15.693Z,102548.28
2019-02-25T16:30:51.332Z,102548.28
2019-02-25T16:33:25.984Z,102548.82
2019-02-25T16:36:01.268Z,102554.02
2019-02-25T16:38:36.399Z,102554.02
2019-02-25T16:41:10.320Z,102559.15
2019-02-25T16:43:43.797Z,102555.19
2019-02-25T16:46:18.446Z,102555.11
2019-02-25T16:48:53.363Z,102555.11
2019-02-25T16:51:28.118Z,102567.03
2019-02-25T16:54:06.731Z,102561.74
2019-02-25T16:56:37.621Z,102567.38
2019-02-25T16:59:11.794Z,102568.76
2019-02-25T17:01:46.121Z,102567.00
2019-02-25T17:04:22.546Z,102562.27
2019-02-25T17:06:55.721Z,102573.88
2019-02-25T17:09:31.938Z,102575.66
2019-02-25T17:12:06.856Z,102580.95
2019-02-25T17:14:41.027Z,102576.96
2019-02-25T17:17:14.425Z,102580.44
2019-02-25T17:19:47.748Z,102587.03
2019-02-25T17:22:21.152Z,102589.66
2019-02-25T17:24:56.509Z,102592.61
2019-02-25T17:27:29.509Z,102593.61
2019-02-25T17:30:02.767Z,102593.19
2019-02-25T17:32:37.838Z,102596.70
2019-02-25T17:35:13.338Z,102604.10
2019-02-25T17:37:46.742Z,102603.16
2019-02-25T17:40:20.235Z,102610.60
2019-02-25T17:42:54.547Z,102607.94
2019-02-25T17:45:34.028Z,102615.39
2019-02-25T17:48:08.383Z,102610.98
2019-02-25T17:50:41.968Z,102620.55
2019-02-25T17:53:15.247Z,102623.55
2019-02-25T17:55:50.721Z,102620.41
2019-02-25T17:58:24.131Z,102619.09
2019-02-25T18:00:59.252Z,102629.56
2019-02-25T18:03:32.466Z,102633.55
2019-02-25T18:06:07.501Z,102630.45
2019-02-25T18:08:41.042Z,102637.00
2019-02-25T18:11:15.768Z,102636.95
2019-02-25T18:13:51.185Z,102637.77
2019-02-25T18:16:24.499Z,102637.72
2019-02-25T18:18:57.822Z,102635.03
2019-02-25T18:21:31.186Z,102639.80
2019-02-25T18:24:04.654Z,102640.77
2019-02-25T18:26:37.938Z,102640.27
2019-02-25T18:29:12.673Z,102643.22
2019-02-25T18:31:46.352Z,102637.91
2019-02-25T18:34:19.771Z,102644.52
2019-02-25T18:36:53.750Z,102647.11
2019-02-25T18:39:29.998Z,102651.44
2019-02-25T18:42:03.202Z,102654.44
2019-02-25T18:44:36.563Z,102658.39
2019-02-25T18:47:09.871Z,102656.56
2019-02-25T18:49:43.180Z,102651.64
2019-02-25T18:52:16.489Z,102642.98
2019-02-25T18:54:49.893Z,102649.33
2019-02-25T18:57:25.187Z,102652.05
2019-02-25T18:59:59.365Z,102654.11
2019-02-25T19:02:35.563Z,102651.73
2019-02-25T19:05:13.023Z,102645.82
2019-02-25T19:07:44.227Z,102646.93
2019-02-25T19:10:20.092Z,102652.47
2019-02-25T19:12:53.873Z,102649.27
2019-02-25T19:15:28.747Z,102655.68
2019-02-25T19:18:02.096Z,102654.59
2019-02-25T19:20:36.714Z,102653.28
2019-02-25T19:23:11.732Z,102660.16
2019-02-25T19:25:45.759Z,102658.55
2019-02-25T19:28:21.585Z,102660.86
2019-02-25T19:30:54.452Z,102671.70
2019-02-25T19:33:27.894Z,102673.02
2019-02-25T19:36:02.974Z,102670.53
2019-02-25T19:38:41.077Z,102674.65
2019-02-25T19:41:15.123Z,102676.70
2019-02-25T19:43:46.497Z,102673.13
2019-02-25T19:46:19.861Z,102673.38
2019-02-25T19:48:54.263Z,102672.62
2019-02-25T19:51:29.769Z,102673.03
2019-02-25T19:54:05.195Z,102673.63
2019-02-25T19:59:10.866Z,102673.00
2019-02-25T20:01:44.180Z,102679.76
2019-02-25T20:04:18.831Z,102678.86
2019-02-25T20:06:53.752Z,102675.62
2019-02-25T20:09:27.369Z,102676.37
2019-02-25T20:12:01.843Z,102678.88
2019-02-25T20:14:35.496Z,102679.20
2019-02-25T20:17:08.877Z,102680.77
2019-02-25T20:19:43.922Z,102684.28
2019-02-25T20:22:18.438Z,102681.84
2019-02-25T20:24:53.309Z,102679.97
2019-02-25T20:27:26.971Z,102682.91
2019-02-25T20:30:02.641Z,102684.20
2019-02-25T20:32:36.467Z,102684.66
2019-02-25T20:35:13.959Z,102680.83
2019-02-25T20:37:51.145Z,102681.65
2019-02-25T20:40:24.133Z,102678.94
2019-02-25T20:42:58.727Z,102680.25
2019-02-25T20:45:35.479Z,102683.09
2019-02-25T20:48:09.103Z,102676.39
2019-02-25T20:50:42.428Z,102676.84
2019-02-25T20:53:15.790Z,102678.47
2019-02-25T20:55:50.793Z,102674.93
2019-02-25T20:58:24.190Z,102672.34
2019-02-25T21:00:57.495Z,102668.41
2019-02-25T21:03:30.780Z,102668.48
2019-02-25T21:06:04.522Z,102671.55
2019-02-25T21:08:39.862Z,102667.66
2019-02-25T21:11:13.957Z,102666.86
2019-02-25T21:13:47.883Z,102670.15
2019-02-25T21:16:21.272Z,102673.30
2019-02-25T21:18:55.032Z,102668.02
2019-02-25T21:21:30.299Z,102668.78
2019-02-25T21:24:04.245Z,102667.34
2019-02-25T21:26:40.434Z,102664.28
2019-02-25T21:29:13.681Z,102659.84
2019-02-25T21:31:47.489Z,102660.97
2019-02-25T21:34:24.423Z,102659.42
2019-02-25T21:37:00.811Z,102666.09
2019-02-25T21:39:36.663Z,102661.06
2019-02-25T21:42:12.619Z,102658.13
2019-02-25T21:44:46.441Z,102659.53
2019-02-25T21:47:22.133Z,102652.77
2019-02-25T21:49:58.750Z,102650.30
2019-02-25T21:52:32.897Z,102652.48
2019-02-25T21:55:07.574Z,102662.45
2019-02-25T21:57:41.281Z,102652.27
2019-02-25T22:00:27.128Z,102653.53
2019-02-25T22:03:00.594Z,102654.06
2019-02-25T22:05:33.889Z,102651.33
2019-02-25T22:08:07.257Z,102653.94
2019-02-25T22:10:42.023Z,102648.50
2019-02-25T22:13:16.389Z,102641.81
2019-02-25T22:15:50.584Z,102641.80
2019-02-25T22:18:25.628Z,102639.73
2019-02-25T22:20:58.901Z,102634.74
2019-02-25T22:23:32.838Z,102642.79
2019-02-25T22:26:07.366Z,102646.33
2019-02-25T22:28:40.689Z,102649.80
2019-02-25T22:31:15.818Z,102647.55
2019-02-25T22:33:49.032Z,102644.94
2019-02-25T22:36:22.317Z,102640.67
2019-02-25T22:38:57.195Z,102637.81
2019-02-25T22:41:30.638Z,102641.13
2019-02-25T22:44:04.534Z,102637.80
2019-02-25T22:46:39.703Z,102644.35
2019-02-25T22:49:13.985Z,102653.75
2019-02-25T22:51:51.682Z,102655.57
2019-02-25T22:54:22.318Z,102650.53
2019-02-25T22:56:55.652Z,102650.23
2019-02-25T22:59:28.998Z,102649.58
2019-02-25T23:02:02.540Z,102650.94
2019-02-25T23:04:35.860Z,102644.73
2019-02-25T23:07:11.075Z,102655.39
2019-02-25T23:09:45.271Z,102650.50
2019-02-25T23:12:20.154Z,102646.30
2019-02-25T23:14:56.049Z,102643.70
2019-02-25T23:17:33.083Z,102644.36
2019-02-25T23:20:10.574Z,102654.16
2019-02-25T23:22:43.855Z,102656.35
2019-02-25T23:25:17.142Z,102661.15
2019-02-25T23:27:51.667Z,102663.02
2019-02-25T23:30:25.450Z,102664.33
2019-02-25T23:32:58.743Z,102660.97
2019-02-25T23:35:32.056Z,102672.88
2019-02-25T23:38:05.329Z,102679.30
2019-02-25T23:40:40.159Z,102679.03
2019-02-25T23:43:14.946Z,102678.20
2019-02-25T23:45:48.659Z,102678.33
2019-02-25T23:48:21.959Z,102673.07
2019-02-25T23:50:57.183Z,102673.56
2019-02-25T23:53:31.119Z,102667.82
2019-02-25T23:56:05.417Z,102675.59
2019-02-25T23:58:42.322Z,102677.30
